createdAt,value
2022-11-24T00:01:15.835Z,7.50
2022-11-24T00:03:44.040Z,7.20
2022-11-24T00:06:13.798Z,7.43
2022-11-24T00:08:42.818Z,7.55
2022-11-24T00:11:13.231Z,7.65
2022-11-24T00:13:41.605Z,8.15
2022-11-24T00:16:13.709Z,7.72
2022-11-24T00:18:42.297Z,8.23
2022-11-24T00:21:10.371Z,6.88
2022-11-24T00:23:38.255Z,7.63
2022-11-24T00:26:06.531Z,7.80
2022-11-24T00:28:35.220Z,7.43
2022-11-24T00:31:03.017Z,6.93
2022-11-24T00:33:30.050Z,7.10
2022-11-24T00:35:58.871Z,6.40
2022-11-24T00:38:26.570Z,6.40
2022-11-24T00:40:55.479Z,6.57
2022-11-24T00:43:22.571Z,6.43
2022-11-24T00:45:49.849Z,6.22
2022-11-24T00:48:16.895Z,6.70
2022-11-24T00:50:43.899Z,6.28
2022-11-24T00:53:10.951Z,6.80
2022-11-24T00:55:38.067Z,6.50
2022-11-24T00:58:05.115Z,6.35
2022-11-24T01:00:35.343Z,6.13
2022-11-24T01:03:05.207Z,5.90
2022-11-24T01:05:32.247Z,5.95
2022-11-24T01:07:59.118Z,6.20
2022-11-24T01:10:26.375Z,6.20
2022-11-24T01:12:53.747Z,6.60
2022-11-24T01:15:23.862Z,6.43
2022-11-24T01:17:51.376Z,5.53
2022-11-24T01:20:18.516Z,5.63
2022-11-24T01:22:48.819Z,5.97
2022-11-24T01:25:16.319Z,5.90
2022-11-24T01:27:43.304Z,6.40
2022-11-24T01:30:11.210Z,5.60
2022-11-24T01:32:38.199Z,6.43
2022-11-24T01:35:06.390Z,6.30
2022-11-24T01:37:33.521Z,6.22
2022-11-24T01:40:00.918Z,6.00
2022-11-24T01:42:40.302Z,5.40
2022-11-24T01:45:28.558Z,6.13
2022-11-24T01:47:56.310Z,6.70
2022-11-24T01:50:23.813Z,6.40
2022-11-24T01:52:54.277Z,6.32
2022-11-24T01:55:34.003Z,5.47
2022-11-24T01:58:09.075Z,6.10
2022-11-24T02:00:38.656Z,6.60
2022-11-24T02:03:06.667Z,6.65
2022-11-24T02:05:41.286Z,6.03
2022-11-24T02:08:19.538Z,6.28
2022-11-24T02:10:47.511Z,6.13
2022-11-24T02:13:15.993Z,6.47
2022-11-24T02:15:43.255Z,6.80
2022-11-24T02:18:12.428Z,6.55
2022-11-24T02:20:39.638Z,6.72
2022-11-24T02:23:21.552Z,6.00
2022-11-24T02:26:11.794Z,6.40
2022-11-24T02:28:39.205Z,7.80
2022-11-24T02:31:06.484Z,7.22
2022-11-24T02:33:34.901Z,5.97
2022-11-24T02:36:01.955Z,7.00
2022-11-24T02:38:37.712Z,6.85
2022-11-24T02:41:11.451Z,6.97
2022-11-24T02:43:55.060Z,6.78
2022-11-24T02:46:22.519Z,6.85
2022-11-24T02:48:49.510Z,6.97
2022-11-24T02:51:16.645Z,6.47
2022-11-24T02:53:43.994Z,7.50
2022-11-24T02:56:11.042Z,6.97
2022-11-24T02:58:38.164Z,6.82
2022-11-24T03:01:05.478Z,7.40
2022-11-24T03:03:32.628Z,7.38
2022-11-24T03:05:59.666Z,7.57
2022-11-24T03:08:26.586Z,7.32
2022-11-24T03:10:54.678Z,7.95
2022-11-24T03:13:21.765Z,8.10
2022-11-24T03:15:49.075Z,8.07
2022-11-24T03:18:16.142Z,8.27
2022-11-24T03:20:43.051Z,8.48
2022-11-24T03:23:10.319Z,8.95
2022-11-24T03:25:37.376Z,8.17
2022-11-24T03:28:10.062Z,7.95
2022-11-24T03:30:37.136Z,8.90
2022-11-24T03:33:05.248Z,7.47
2022-11-24T03:35:32.227Z,7.47
2022-11-24T03:37:59.350Z,7.80
2022-11-24T03:40:26.440Z,7.78
2022-11-24T03:42:53.546Z,7.50
2022-11-24T03:45:44.910Z,7.78
2022-11-24T03:48:08.220Z,7.60
2022-11-24T03:50:35.343Z,7.27
2022-11-24T03:53:02.482Z,7.65
2022-11-24T03:55:29.424Z,8.32
2022-11-24T03:57:56.507Z,7.90
2022-11-24T04:00:23.516Z,7.32
2022-11-24T04:02:50.767Z,7.40
2022-11-24T04:05:17.817Z,7.55
2022-11-24T04:07:44.919Z,8.27
2022-11-24T04:10:12.003Z,7.50
2022-11-24T04:12:46.232Z,7.97
2022-11-24T04:15:15.937Z,8.23
2022-11-24T04:17:44.285Z,6.97
2022-11-24T04:20:12.532Z,7.93
2022-11-24T04:22:40.064Z,8.23
2022-11-24T04:25:08.508Z,8.90
2022-11-24T04:27:37.192Z,7.83
2022-11-24T04:30:08.145Z,9.45
2022-11-24T04:32:35.776Z,8.38
2022-11-24T04:35:04.465Z,7.80
2022-11-24T04:37:31.496Z,8.55
2022-11-24T04:39:58.508Z,8.37
2022-11-24T04:42:25.541Z,8.18
2022-11-24T04:44:52.759Z,8.00
2022-11-24T04:47:25.641Z,7.85
2022-11-24T04:49:55.623Z,8.15
2022-11-24T04:52:24.491Z,8.33
2022-11-24T04:54:51.950Z,7.22
2022-11-24T04:57:24.820Z,8.23
2022-11-24T04:59:52.906Z,8.23
2022-11-24T05:02:20.791Z,7.50
2022-11-24T05:04:48.221Z,8.53
2022-11-24T05:07:18.975Z,8.30
2022-11-24T05:10:05.937Z,8.20
2022-11-24T05:12:33.171Z,8.20
2022-11-24T05:15:05.012Z,7.15
2022-11-24T05:17:34.981Z,8.07
2022-11-24T05:20:02.397Z,10.85
2022-11-24T05:22:31.761Z,9.55
2022-11-24T05:24:59.115Z,8.38
2022-11-24T05:27:26.073Z,8.18
2022-11-24T05:29:53.224Z,7.80
2022-11-24T05:32:20.372Z,8.23
2022-11-24T05:34:48.101Z,8.50
2022-11-24T05:37:15.184Z,9.23
2022-11-24T05:39:42.132Z,8.70
2022-11-24T05:42:28.173Z,8.53
2022-11-24T05:44:55.330Z,8.50
2022-11-24T05:47:22.366Z,8.43
2022-11-24T05:49:49.893Z,8.77
2022-11-24T05:52:17.013Z,9.30
2022-11-24T05:54:44.037Z,8.50
2022-11-24T05:57:10.938Z,8.50
2022-11-24T05:59:38.009Z,9.38
2022-11-24T06:02:05.090Z,9.23
2022-11-24T06:04:32.596Z,10.07
2022-11-24T06:07:00.023Z,9.20
2022-11-24T06:09:27.188Z,8.55
2022-11-24T06:11:56.790Z,8.73
2022-11-24T06:14:24.395Z,8.82
2022-11-24T06:16:51.672Z,8.10
2022-11-24T06:19:18.740Z,9.53
2022-11-24T06:21:45.688Z,8.10
2022-11-24T06:24:12.894Z,8.02
2022-11-24T06:26:39.861Z,8.98
2022-11-24T06:29:07.023Z,9.07
2022-11-24T06:31:34.034Z,8.43
2022-11-24T06:34:01.138Z,8.95
2022-11-24T06:36:28.335Z,7.57
2022-11-24T06:38:55.452Z,8.70
2022-11-24T06:41:22.395Z,8.57
2022-11-24T06:43:49.429Z,7.83
2022-11-24T06:46:16.410Z,8.00
2022-11-24T06:48:43.427Z,8.10
2022-11-24T06:51:15.393Z,8.25
2022-11-24T06:53:42.369Z,7.78
2022-11-24T06:56:16.393Z,8.03
2022-11-24T06:58:46.418Z,8.80
2022-11-24T07:01:32.518Z,9.13
2022-11-24T07:03:59.674Z,7.43
2022-11-24T07:06:28.513Z,8.25
2022-11-24T07:08:55.641Z,7.63
2022-11-24T07:11:24.135Z,8.80
2022-11-24T07:13:55.178Z,8.45
2022-11-24T07:16:26.672Z,8.80
2022-11-24T07:18:56.022Z,8.77
2022-11-24T07:21:24.253Z,8.77
2022-11-24T07:23:53.096Z,9.13
2022-11-24T07:26:20.699Z,8.82
2022-11-24T07:28:47.730Z,9.60
2022-11-24T07:31:21.079Z,9.80
2022-11-24T07:33:53.723Z,9.17
2022-11-24T07:36:22.005Z,8.88
2022-11-24T07:38:50.249Z,9.80
2022-11-24T07:41:22.469Z,10.40
2022-11-24T07:43:51.010Z,10.70
2022-11-24T07:46:22.739Z,9.50
2022-11-24T07:48:50.443Z,9.10
2022-11-24T07:51:23.139Z,8.93
2022-11-24T07:53:56.450Z,10.02
2022-11-24T07:56:28.805Z,10.27
2022-11-24T07:58:58.644Z,9.37
2022-11-24T08:01:26.986Z,10.43
2022-11-24T08:03:58.088Z,9.45
2022-11-24T08:06:27.674Z,9.00
2022-11-24T08:08:58.458Z,9.38
2022-11-24T08:11:26.285Z,9.47
2022-11-24T08:13:54.111Z,8.98
2022-11-24T08:16:21.283Z,8.93
2022-11-24T08:18:54.003Z,9.02
2022-11-24T08:21:23.400Z,8.48
2022-11-24T08:23:56.834Z,8.17
2022-11-24T08:26:25.358Z,8.90
2022-11-24T08:28:58.130Z,7.88
2022-11-24T08:31:34.300Z,8.52
2022-11-24T08:34:02.948Z,8.50
2022-11-24T08:36:30.018Z,8.60
2022-11-24T08:38:59.110Z,8.85
2022-11-24T08:41:28.235Z,7.70
2022-11-24T08:43:56.022Z,8.52
2022-11-24T08:47:13.653Z,8.75
2022-11-24T08:49:34.756Z,9.17
2022-11-24T08:52:10.039Z,8.35
2022-11-24T08:54:42.879Z,8.57
2022-11-24T08:57:21.649Z,9.07
2022-11-24T09:00:07.675Z,8.77
2022-11-24T09:02:46.367Z,8.30
2022-11-24T09:08:11.697Z,10.68
2022-11-24T09:13:46.344Z,8.50
2022-11-24T09:16:23.134Z,9.53
2022-11-24T09:32:16.480Z,9.47
2022-11-24T09:37:48.728Z,8.77
2022-11-24T09:44:11.144Z,9.52
2022-11-24T09:46:53.127Z,8.43
2022-11-24T09:50:02.634Z,8.48
2022-11-24T09:53:16.053Z,9.27
2022-11-24T09:56:26.956Z,8.18
2022-11-24T09:59:03.707Z,8.85
2022-11-24T10:01:47.921Z,8.27
2022-11-24T10:04:42.350Z,8.52
2022-11-24T10:07:12.145Z,8.65
2022-11-24T10:09:44.944Z,8.95
2022-11-24T10:12:21.356Z,9.98
2022-11-24T10:15:16.577Z,9.00
2022-11-24T10:18:13.237Z,10.52
2022-11-24T10:21:06.388Z,10.43
2022-11-24T10:24:08.192Z,10.00
2022-11-24T10:27:28.095Z,9.32
2022-11-24T10:30:23.740Z,9.80
2022-11-24T10:33:30.552Z,10.20
2022-11-24T10:36:23.199Z,10.25
2022-11-24T10:39:24.119Z,11.07
2022-11-24T10:43:00.263Z,10.20
2022-11-24T10:45:37.542Z,11.47
2022-11-24T10:48:09.082Z,10.85
2022-11-24T10:50:41.752Z,11.48
2022-11-24T10:53:08.910Z,10.93
2022-11-24T10:55:56.460Z,10.73
2022-11-24T11:03:40.448Z,8.98
2022-11-24T11:06:51.797Z,9.60
2022-11-24T11:10:18.849Z,7.10
2022-11-24T11:12:48.610Z,7.03
2022-11-24T11:15:29.661Z,8.50
2022-11-24T11:18:26.022Z,8.15
2022-11-24T11:21:46.280Z,8.00
2022-11-24T11:25:27.853Z,8.27
2022-11-24T11:35:53.499Z,7.70
2022-11-24T11:38:21.203Z,9.35
2022-11-24T11:43:46.015Z,9.73
2022-11-24T11:46:27.327Z,10.00
2022-11-24T11:48:59.948Z,9.77
2022-11-24T11:51:59.347Z,9.93
2022-11-24T12:02:36.639Z,7.70
2022-11-24T12:05:26.237Z,8.77
2022-11-24T12:08:16.018Z,9.05
2022-11-24T12:11:10.327Z,9.85
2022-11-24T12:14:19.805Z,9.02
2022-11-24T12:17:27.699Z,10.73
2022-11-24T12:20:46.044Z,10.63
2022-11-24T12:24:07.588Z,14.13
2022-11-24T12:27:23.341Z,13.93
2022-11-24T12:30:53.435Z,13.55
2022-11-24T12:34:44.295Z,13.07
2022-11-24T12:37:46.228Z,12.98
2022-11-24T12:44:10.159Z,11.02
2022-11-24T12:47:28.296Z,11.15
2022-11-24T12:50:16.527Z,9.97
2022-11-24T13:06:02.847Z,8.80
2022-11-24T13:08:51.682Z,10.63
2022-11-24T13:11:22.519Z,11.35
2022-11-24T13:14:11.475Z,9.32
2022-11-24T13:17:21.875Z,10.10
2022-11-24T13:21:43.483Z,9.88
2022-11-24T13:32:55.150Z,10.70
2022-11-24T13:38:58.218Z,9.90
2022-11-24T13:52:42.353Z,9.93
2022-11-24T13:55:23.609Z,11.27
2022-11-24T13:57:54.491Z,11.82
2022-11-24T14:00:33.460Z,10.30
2022-11-24T14:03:30.912Z,10.77
2022-11-24T14:05:59.558Z,10.65
2022-11-24T14:08:30.423Z,11.25
2022-11-24T14:10:59.450Z,10.48
2022-11-24T14:13:32.567Z,11.50
2022-11-24T14:16:12.687Z,11.00
2022-11-24T14:18:42.815Z,11.52
2022-11-24T14:21:44.611Z,9.65
2022-11-24T14:24:53.878Z,10.27
2022-11-24T14:27:41.210Z,9.97
2022-11-24T14:30:22.391Z,10.60
2022-11-24T14:32:56.043Z,9.57
2022-11-24T14:35:26.212Z,9.45
2022-11-24T14:37:56.043Z,10.23
2022-11-24T14:44:01.514Z,10.05
2022-11-24T14:46:28.826Z,9.65
2022-11-24T14:48:59.248Z,9.52
2022-11-24T14:51:33.227Z,10.27
2022-11-24T14:54:12.418Z,9.43
2022-11-24T14:56:46.201Z,10.27
2022-11-24T14:59:26.651Z,9.05
2022-11-24T15:01:59.781Z,8.65
2022-11-24T15:07:19.631Z,9.93
2022-11-24T15:10:43.728Z,10.60
2022-11-24T15:13:21.658Z,9.57
2022-11-24T15:16:03.416Z,8.23
2022-11-24T15:18:56.984Z,9.32
2022-11-24T15:21:35.386Z,8.23
2022-11-24T15:24:19.513Z,9.18
2022-11-24T15:26:47.129Z,9.70
2022-11-24T15:29:14.802Z,7.88
2022-11-24T15:31:46.432Z,8.07
2022-11-24T15:34:18.342Z,7.93
2022-11-24T15:36:45.757Z,8.18
2022-11-24T15:39:13.723Z,9.13
2022-11-24T15:41:40.963Z,8.15
2022-11-24T15:44:09.720Z,7.57
2022-11-24T15:46:38.860Z,8.47
2022-11-24T15:49:06.640Z,7.40
2022-11-24T15:51:42.908Z,7.85
2022-11-24T15:54:14.450Z,7.47
2022-11-24T15:56:42.144Z,7.82
2022-11-24T15:59:20.803Z,7.13
2022-11-24T16:01:49.841Z,9.07
2022-11-24T16:04:17.196Z,9.30
2022-11-24T16:06:44.134Z,8.18
2022-11-24T16:09:18.545Z,9.25
2022-11-24T16:11:48.082Z,8.43
2022-11-24T16:14:22.856Z,9.45
2022-11-24T16:16:52.953Z,8.95
2022-11-24T16:19:19.859Z,9.40
2022-11-24T16:21:52.870Z,9.38
2022-11-24T16:24:21.009Z,10.07
2022-11-24T16:26:55.619Z,10.02
2022-11-24T16:29:35.333Z,8.10
2022-11-24T16:32:05.561Z,9.70
2022-11-24T16:34:32.710Z,11.10
2022-11-24T16:37:00.019Z,9.97
2022-11-24T16:39:29.695Z,11.02
2022-11-24T16:41:58.916Z,9.82
2022-11-24T16:44:26.005Z,9.63
2022-11-24T16:46:56.429Z,9.93
2022-11-24T16:49:29.222Z,10.03
2022-11-24T16:51:56.351Z,9.02
2022-11-24T16:54:23.610Z,9.85
2022-11-24T16:56:50.480Z,10.20
2022-11-24T16:59:17.715Z,10.60
2022-11-24T17:01:46.687Z,10.23
2022-11-24T17:04:14.170Z,10.95
2022-11-24T17:06:41.231Z,9.50
2022-11-24T17:09:09.233Z,9.35
2022-11-24T17:11:44.550Z,11.20
2022-11-24T17:14:14.696Z,9.57
2022-11-24T17:16:42.872Z,9.38
2022-11-24T17:19:10.459Z,10.63
2022-11-24T17:21:37.802Z,9.23
2022-11-24T17:24:05.606Z,9.00
2022-11-24T17:26:33.659Z,8.97
2022-11-24T17:29:00.711Z,9.18
2022-11-24T17:31:31.080Z,8.35
2022-11-24T17:34:03.338Z,9.40
2022-11-24T17:36:32.473Z,9.75
2022-11-24T17:39:00.242Z,9.40
2022-11-24T17:41:28.167Z,8.90
2022-11-24T17:43:59.505Z,9.48
2022-11-24T17:46:28.022Z,8.45
2022-11-24T17:48:55.331Z,8.68
2022-11-24T17:51:24.634Z,9.57
2022-11-24T17:54:18.657Z,8.48
2022-11-24T17:56:53.193Z,8.73
2022-11-24T17:59:25.255Z,8.70
2022-11-24T18:01:53.491Z,8.80
2022-11-24T18:04:20.694Z,9.03
2022-11-24T18:06:47.583Z,8.55
2022-11-24T18:09:14.577Z,9.00
2022-11-24T18:11:44.061Z,9.20
2022-11-24T18:14:11.078Z,9.18
2022-11-24T18:16:38.057Z,8.97
2022-11-24T18:19:18.414Z,7.50
2022-11-24T18:21:51.293Z,7.70
2022-11-24T18:27:27.916Z,7.05
2022-11-24T18:30:24.064Z,7.70
2022-11-24T18:33:24.605Z,7.03
2022-11-24T18:36:37.715Z,7.70
2022-11-24T18:39:33.022Z,8.45
2022-11-24T18:42:00.150Z,8.50
2022-11-24T18:44:38.163Z,8.43
2022-11-24T18:52:39.521Z,7.28
2022-11-24T18:55:08.469Z,7.82
2022-11-24T18:57:38.951Z,7.73
2022-11-24T19:00:07.786Z,7.85
2022-11-24T19:02:35.378Z,8.38
2022-11-24T19:05:04.954Z,8.07
2022-11-24T19:07:37.438Z,9.07
2022-11-24T19:10:08.499Z,6.77
2022-11-24T19:12:39.677Z,7.28
2022-11-24T19:15:07.511Z,7.40
2022-11-24T19:17:35.647Z,6.80
2022-11-24T19:20:06.323Z,7.45
2022-11-24T19:22:35.797Z,7.20
2022-11-24T19:25:16.342Z,7.53
2022-11-24T19:28:17.123Z,7.60
2022-11-24T19:31:21.501Z,7.47
2022-11-24T19:34:03.701Z,7.13
2022-11-24T19:36:38.418Z,8.17
2022-11-24T19:39:09.785Z,6.90
2022-11-24T19:41:36.735Z,7.63
2022-11-24T19:44:04.108Z,8.43
2022-11-24T19:46:34.817Z,8.43
2022-11-24T19:49:07.336Z,7.93
2022-11-24T19:51:49.364Z,7.82
2022-11-24T19:54:17.250Z,7.53
2022-11-24T19:56:44.451Z,7.30
2022-11-24T19:59:13.695Z,7.80
2022-11-24T20:01:42.750Z,8.00
2022-11-24T20:04:12.833Z,7.28
2022-11-24T20:06:42.091Z,8.10
2022-11-24T20:09:16.529Z,7.28
2022-11-24T20:11:44.195Z,8.27
2022-11-24T20:17:32.696Z,6.60
2022-11-24T20:20:02.117Z,7.32
2022-11-24T20:22:30.027Z,6.93
2022-11-24T20:24:56.994Z,6.85
2022-11-24T20:27:23.887Z,6.37
2022-11-24T20:29:53.679Z,6.72
2022-11-24T20:32:20.809Z,6.70
2022-11-24T20:34:52.408Z,7.32
2022-11-24T20:37:19.370Z,6.68
2022-11-24T20:39:46.445Z,6.83
2022-11-24T20:42:14.563Z,6.18
2022-11-24T20:44:41.645Z,5.90
2022-11-24T20:47:11.173Z,6.00
2022-11-24T20:49:47.114Z,6.80
2022-11-24T20:52:17.697Z,6.07
2022-11-24T20:54:46.991Z,7.43
2022-11-24T20:57:16.682Z,6.82
2022-11-24T20:59:43.979Z,6.28
2022-11-24T21:02:13.851Z,7.20
2022-11-24T21:04:47.573Z,6.30
2022-11-24T21:07:15.872Z,6.38
2022-11-24T21:09:43.014Z,5.90
2022-11-24T21:12:10.205Z,5.75
2022-11-24T21:14:37.670Z,6.03
2022-11-24T21:17:04.984Z,5.57
2022-11-24T21:19:36.002Z,5.28
2022-11-24T21:22:02.909Z,5.30
2022-11-24T21:24:33.460Z,5.78
2022-11-24T21:27:03.151Z,5.18
2022-11-24T21:29:33.255Z,5.20
2022-11-24T21:32:03.176Z,5.88
2022-11-24T21:34:30.271Z,6.22
2022-11-24T21:37:12.141Z,6.07
2022-11-24T21:39:40.962Z,6.15
2022-11-24T21:42:07.952Z,5.70
2022-11-24T21:44:38.334Z,5.65
2022-11-24T21:47:05.462Z,6.00
2022-11-24T21:49:32.619Z,5.40
2022-11-24T21:51:59.533Z,6.10
2022-11-24T21:54:26.629Z,6.97
2022-11-24T21:56:54.277Z,5.80
2022-11-24T21:59:22.164Z,5.88
2022-11-24T22:01:57.926Z,6.05
2022-11-24T22:04:25.068Z,7.43
2022-11-24T22:06:55.591Z,6.90
2022-11-24T22:09:22.828Z,6.35
2022-11-24T22:11:49.854Z,6.82
2022-11-24T22:14:17.123Z,6.22
2022-11-24T22:16:47.591Z,6.45
2022-11-24T22:19:16.936Z,6.63
2022-11-24T22:21:48.244Z,6.25
2022-11-24T22:24:15.287Z,5.97
2022-11-24T22:26:42.249Z,5.85
2022-11-24T22:29:09.306Z,6.22
2022-11-24T22:31:36.405Z,6.80
2022-11-24T22:34:03.345Z,6.55
2022-11-24T22:36:32.974Z,6.10
2022-11-24T22:39:05.732Z,6.15
2022-11-24T22:41:34.797Z,5.93
2022-11-24T22:44:02.121Z,5.20
2022-11-24T22:46:30.631Z,5.70
2022-11-24T22:49:00.250Z,6.10
2022-11-24T22:51:30.013Z,6.00
2022-11-24T22:54:06.151Z,5.38
2022-11-24T22:56:34.217Z,6.23
2022-11-24T22:59:02.645Z,6.10
2022-11-24T23:01:31.607Z,6.35
2022-11-24T23:03:58.667Z,7.03
2022-11-24T23:06:28.113Z,6.68
2022-11-24T23:08:56.753Z,5.73
2022-11-24T23:11:36.411Z,6.07
2022-11-24T23:14:12.098Z,6.20
2022-11-24T23:16:39.310Z,5.50
2022-11-24T23:19:06.603Z,5.80
2022-11-24T23:21:36.642Z,5.83
2022-11-24T23:24:04.604Z,5.57
2022-11-24T23:26:36.131Z,5.93
2022-11-24T23:29:06.720Z,5.22
2022-11-24T23:31:34.099Z,5.40
2022-11-24T23:34:03.525Z,5.50
2022-11-24T23:36:32.426Z,5.78
2022-11-24T23:39:07.465Z,5.40
2022-11-24T23:41:34.878Z,4.80
2022-11-24T23:44:01.985Z,5.43
2022-11-24T23:46:29.330Z,4.90
2022-11-24T23:48:57.288Z,5.07
2022-11-24T23:51:26.917Z,5.47
2022-11-24T23:53:54.802Z,5.20
2022-11-24T23:56:24.953Z,5.40
2022-11-24T23:58:52.121Z,5.13
